createdAt,value
2023-02-12T00:01:58.200Z,29.73
2023-02-12T00:04:24.589Z,30.27
2023-02-12T00:06:51.003Z,31.77
2023-02-12T00:09:17.402Z,34.42
2023-02-12T00:11:43.784Z,36.42
2023-02-12T00:14:10.259Z,39.55
2023-02-12T00:16:36.681Z,40.20
2023-02-12T00:19:03.484Z,43.05
2023-02-12T00:21:29.903Z,37.63
2023-02-12T00:23:56.656Z,37.00
2023-02-12T00:26:23.837Z,39.13
2023-02-12T00:28:50.769Z,40.80
2023-02-12T00:31:20.046Z,38.90
2023-02-12T00:33:46.633Z,39.70
2023-02-12T00:36:20.370Z,41.72
2023-02-12T00:38:47.801Z,42.40
2023-02-12T00:41:14.396Z,38.97
2023-02-12T00:43:41.140Z,39.78
2023-02-12T00:46:08.007Z,40.80
2023-02-12T00:48:35.337Z,42.40
2023-02-12T00:51:01.776Z,41.72
2023-02-12T00:53:28.374Z,34.65
2023-02-12T00:55:54.941Z,35.80
2023-02-12T00:58:21.956Z,38.22
2023-02-12T01:00:48.350Z,44.22
2023-02-12T01:03:18.353Z,39.50
2023-02-12T01:05:44.752Z,39.25
2023-02-12T01:08:13.407Z,39.67
2023-02-12T01:10:40.357Z,42.13
2023-02-12T01:13:09.945Z,39.28
2023-02-12T01:15:36.434Z,42.33
2023-02-12T01:18:02.843Z,44.47
2023-02-12T01:20:29.292Z,45.83
2023-02-12T01:22:55.667Z,38.55
2023-02-12T01:25:22.053Z,39.50
2023-02-12T01:27:51.231Z,42.50
2023-02-12T01:30:17.657Z,38.00
2023-02-12T01:32:44.157Z,40.78
2023-02-12T01:35:10.606Z,38.00
2023-02-12T01:37:38.160Z,35.45
2023-02-12T01:40:05.542Z,37.67
2023-02-12T01:42:32.079Z,38.85
2023-02-12T01:45:13.831Z,39.30
2023-02-12T01:47:42.169Z,37.53
2023-02-12T01:50:10.949Z,39.90
2023-02-12T01:52:38.857Z,32.80
2023-02-12T01:55:07.909Z,36.78
2023-02-12T01:57:36.681Z,34.55
2023-02-12T02:00:10.463Z,35.42
2023-02-12T02:02:37.647Z,36.90
2023-02-12T02:05:04.605Z,33.13
2023-02-12T02:07:31.528Z,34.13
2023-02-12T02:09:58.744Z,35.35
2023-02-12T02:12:44.887Z,31.90
2023-02-12T02:15:11.399Z,26.77
2023-02-12T02:17:47.092Z,30.17
2023-02-12T02:20:22.675Z,34.25
2023-02-12T02:23:11.010Z,30.48
2023-02-12T02:25:43.348Z,33.63
2023-02-12T02:28:31.443Z,29.52
2023-02-12T02:31:00.979Z,23.27
2023-02-12T02:34:00.298Z,24.48
2023-02-12T02:36:41.444Z,32.25
2023-02-12T02:39:26.993Z,33.92
2023-02-12T02:41:53.266Z,28.10
2023-02-12T02:44:26.514Z,28.88
2023-02-12T02:46:54.454Z,28.27
2023-02-12T02:49:44.236Z,27.13
2023-02-12T02:52:16.630Z,28.48
2023-02-12T02:54:50.674Z,30.80
2023-02-12T02:57:26.373Z,29.05
2023-02-12T02:59:56.082Z,29.83
2023-02-12T03:02:29.319Z,32.15
2023-02-12T03:04:59.793Z,28.20
2023-02-12T03:07:29.829Z,26.60
2023-02-12T03:09:59.756Z,30.05
2023-02-12T03:12:34.058Z,30.30
2023-02-12T03:15:07.226Z,32.78
2023-02-12T03:17:43.344Z,30.77
2023-02-12T03:20:13.096Z,26.02
2023-02-12T03:22:41.314Z,33.47
2023-02-12T03:25:15.790Z,28.73
2023-02-12T03:27:44.930Z,28.88
2023-02-12T03:30:11.948Z,33.22
2023-02-12T03:32:57.576Z,33.22
2023-02-12T03:35:28.371Z,35.15
2023-02-12T03:38:04.787Z,30.88
2023-02-12T03:40:40.856Z,30.27
2023-02-12T03:43:16.828Z,33.47
2023-02-12T03:46:03.690Z,36.92
2023-02-12T03:48:36.950Z,31.33
2023-02-12T03:51:21.735Z,37.05
2023-02-12T03:53:48.382Z,34.13
2023-02-12T03:56:19.239Z,32.95
2023-02-12T03:58:45.875Z,37.30
2023-02-12T04:01:13.005Z,35.33
2023-02-12T04:03:39.763Z,39.95
2023-02-12T04:06:22.100Z,38.47
2023-02-12T04:08:48.534Z,39.60
2023-02-12T04:11:30.138Z,38.58
2023-02-12T04:14:33.211Z,35.55
2023-02-12T04:20:17.033Z,38.10
2023-02-12T04:22:51.765Z,39.78
2023-02-12T04:25:32.344Z,37.78
2023-02-12T04:28:53.272Z,37.67
2023-02-12T04:31:38.262Z,41.67
2023-02-12T04:34:15.587Z,44.63
2023-02-12T04:36:47.124Z,44.53
2023-02-12T04:39:18.559Z,39.88
2023-02-12T04:41:47.689Z,46.60
2023-02-12T04:44:16.269Z,40.95
2023-02-12T04:46:42.677Z,44.17
2023-02-12T04:49:13.549Z,45.75
2023-02-12T04:51:39.940Z,47.95
2023-02-12T04:54:06.401Z,44.35
2023-02-12T04:56:32.786Z,51.95
2023-02-12T04:58:59.166Z,44.47
2023-02-12T05:01:25.881Z,47.65
2023-02-12T05:03:52.760Z,45.95
2023-02-12T05:06:19.243Z,48.53
2023-02-12T05:08:45.630Z,52.88
2023-02-12T05:11:12.424Z,50.65
2023-02-12T05:13:38.884Z,54.90
2023-02-12T05:16:06.773Z,58.75
2023-02-12T05:18:34.129Z,52.42
2023-02-12T05:21:03.107Z,52.85
2023-02-12T05:23:34.795Z,57.33
2023-02-12T05:26:02.846Z,54.25
2023-02-12T05:28:29.513Z,52.30
2023-02-12T05:31:00.185Z,56.60
2023-02-12T05:33:26.642Z,66.22
2023-02-12T05:35:53.317Z,59.42
2023-02-12T05:38:19.911Z,55.58
2023-02-12T05:40:46.423Z,59.83
2023-02-12T05:43:13.185Z,64.30
2023-02-12T05:45:41.203Z,57.78
2023-02-12T05:48:07.740Z,66.85
2023-02-12T05:50:34.148Z,74.22
2023-02-12T05:53:01.179Z,68.20
2023-02-12T05:55:27.785Z,75.13
2023-02-12T05:57:54.457Z,71.57
2023-02-12T06:00:21.213Z,72.15
2023-02-12T06:02:47.744Z,83.50
2023-02-12T06:05:14.257Z,80.38
2023-02-12T06:07:40.653Z,71.50
2023-02-12T06:10:07.718Z,81.10
2023-02-12T06:12:34.143Z,82.50
2023-02-12T06:15:00.610Z,91.63
2023-02-12T06:17:27.014Z,96.93
2023-02-12T06:19:53.401Z,89.82
2023-02-12T06:22:19.793Z,95.70
2023-02-12T06:24:46.184Z,98.60
2023-02-12T06:27:12.568Z,104.72
2023-02-12T06:29:39.018Z,93.20
2023-02-12T06:32:08.327Z,99.10
2023-02-12T06:34:34.836Z,95.65
2023-02-12T06:37:01.322Z,100.90
2023-02-12T06:39:27.777Z,98.18
2023-02-12T06:41:54.528Z,106.38
2023-02-12T06:44:20.940Z,110.05
2023-02-12T06:46:47.639Z,90.57
2023-02-12T06:49:14.440Z,80.53
2023-02-12T06:51:41.296Z,89.55
2023-02-12T06:54:13.735Z,78.13
2023-02-12T06:56:40.133Z,78.70
2023-02-12T06:59:06.592Z,80.93
2023-02-12T07:01:32.996Z,76.95
2023-02-12T07:04:02.238Z,77.20
2023-02-12T07:06:29.855Z,73.15
2023-02-12T07:08:56.850Z,75.00
2023-02-12T07:11:27.938Z,76.97
2023-02-12T07:13:54.526Z,79.57
2023-02-12T07:16:21.083Z,75.60
2023-02-12T07:18:47.563Z,81.57
2023-02-12T07:21:15.775Z,77.88
2023-02-12T07:23:42.850Z,69.95
2023-02-12T07:26:11.984Z,82.18
2023-02-12T07:28:38.802Z,77.35
2023-02-12T07:31:08.643Z,69.97
2023-02-12T07:33:35.496Z,82.72
2023-02-12T07:36:02.632Z,82.35
2023-02-12T07:38:29.101Z,82.28
2023-02-12T07:40:58.669Z,75.95
2023-02-12T07:43:25.068Z,79.63
2023-02-12T07:45:51.532Z,82.05
2023-02-12T07:48:17.959Z,80.25
2023-02-12T07:50:44.390Z,75.60
2023-02-12T07:53:10.779Z,81.53
2023-02-12T07:55:37.242Z,77.07
2023-02-12T07:58:03.626Z,80.32
2023-02-12T08:00:30.000Z,86.95
2023-02-12T08:02:56.441Z,82.15
2023-02-12T08:05:22.800Z,88.22
2023-02-12T08:07:51.152Z,90.07
2023-02-12T08:10:23.545Z,89.22
2023-02-12T08:12:49.964Z,92.97
2023-02-12T08:15:16.378Z,94.25
2023-02-12T08:17:43.509Z,91.97
2023-02-12T08:20:10.207Z,95.47
2023-02-12T08:22:36.599Z,88.13
2023-02-12T08:25:03.037Z,95.30
2023-02-12T08:27:29.467Z,97.22
2023-02-12T08:29:55.903Z,104.28
2023-02-12T08:32:22.351Z,102.63
2023-02-12T08:34:48.740Z,100.80
2023-02-12T08:37:15.150Z,108.47
2023-02-12T08:39:41.657Z,106.25
2023-02-12T08:42:08.041Z,104.50
2023-02-12T08:44:34.492Z,107.60
2023-02-12T08:47:03.176Z,108.43
2023-02-12T08:49:30.175Z,100.15
2023-02-12T08:51:58.142Z,101.38
2023-02-12T08:54:26.989Z,110.47
2023-02-12T08:57:01.522Z,109.75
2023-02-12T08:59:28.616Z,104.65
2023-02-12T09:01:55.374Z,110.90
2023-02-12T09:04:24.068Z,109.68
2023-02-12T09:06:51.522Z,112.30
2023-02-12T09:09:19.658Z,112.90
2023-02-12T09:11:46.624Z,112.82
2023-02-12T09:14:15.338Z,119.32
2023-02-12T09:16:41.951Z,105.53
2023-02-12T09:19:09.382Z,113.30
2023-02-12T09:21:35.822Z,103.90
2023-02-12T09:24:03.563Z,105.45
2023-02-12T09:26:30.015Z,112.70
2023-02-12T09:28:56.484Z,101.95
2023-02-12T09:31:26.567Z,100.28
2023-02-12T09:33:58.882Z,100.88
2023-02-12T09:36:25.757Z,97.05
2023-02-12T09:38:54.204Z,100.28
2023-02-12T09:41:38.960Z,105.88
2023-02-12T09:44:22.341Z,101.35
2023-02-12T09:47:12.863Z,105.93
2023-02-12T09:49:53.633Z,107.85
2023-02-12T09:52:22.447Z,111.70
2023-02-12T09:54:49.466Z,106.18
2023-02-12T09:57:26.029Z,104.03
2023-02-12T09:59:56.394Z,98.82
2023-02-12T10:02:23.754Z,106.40
2023-02-12T10:05:00.792Z,101.97
2023-02-12T10:07:55.415Z,99.65
2023-02-12T10:11:01.241Z,103.78
2023-02-12T10:13:35.183Z,103.25
2023-02-12T10:16:20.162Z,106.20
2023-02-12T10:19:22.010Z,92.68
2023-02-12T10:22:02.325Z,95.30
2023-02-12T10:24:37.856Z,95.03
2023-02-12T10:27:22.876Z,101.75
2023-02-12T10:29:49.839Z,92.70
2023-02-12T10:32:26.846Z,97.72
2023-02-12T10:34:53.911Z,96.45
2023-02-12T10:37:50.804Z,95.53
2023-02-12T10:40:22.166Z,98.40
2023-02-12T10:42:51.536Z,93.10
2023-02-12T10:45:29.424Z,90.50
2023-02-12T10:48:13.773Z,92.07
2023-02-12T10:50:57.053Z,93.85
2023-02-12T10:53:26.721Z,95.53
2023-02-12T10:56:11.645Z,95.03
2023-02-12T10:58:43.526Z,93.88
2023-02-12T11:01:17.806Z,90.85
2023-02-12T11:03:44.290Z,87.70
2023-02-12T11:06:20.665Z,88.30
2023-02-12T11:08:47.224Z,88.60
2023-02-12T11:11:23.160Z,92.43
2023-02-12T11:14:20.071Z,84.95
2023-02-12T11:16:55.275Z,89.70
2023-02-12T11:19:24.932Z,82.13
2023-02-12T11:21:51.558Z,83.72
2023-02-12T11:24:31.112Z,82.38
2023-02-12T11:27:24.705Z,75.97
2023-02-12T11:30:18.482Z,77.78
2023-02-12T11:32:44.962Z,76.43
2023-02-12T11:35:18.247Z,67.72
2023-02-12T11:37:46.239Z,72.85
2023-02-12T11:40:36.077Z,72.60
2023-02-12T11:43:05.905Z,72.38
2023-02-12T11:45:41.687Z,77.30
2023-02-12T11:48:18.740Z,68.00
2023-02-12T11:50:49.391Z,68.63
2023-02-12T11:53:37.313Z,86.28
2023-02-12T11:56:09.408Z,79.22
2023-02-12T11:58:35.805Z,66.78
2023-02-12T12:01:19.551Z,74.82
2023-02-12T12:03:50.390Z,64.75
2023-02-12T12:06:19.790Z,65.03
2023-02-12T12:09:07.353Z,56.10
2023-02-12T12:12:02.988Z,58.35
2023-02-12T12:14:31.634Z,52.00
2023-02-12T12:17:27.610Z,60.17
2023-02-12T12:20:01.597Z,54.15
2023-02-12T12:22:50.263Z,49.50
2023-02-12T12:25:34.918Z,51.03
2023-02-12T12:28:29.305Z,51.72
2023-02-12T12:31:26.430Z,46.78
2023-02-12T12:34:06.918Z,44.35
2023-02-12T12:37:03.217Z,42.67
2023-02-12T12:40:09.840Z,42.05
2023-02-12T12:42:55.898Z,38.97
2023-02-12T12:45:51.261Z,32.20
2023-02-12T12:48:32.906Z,29.83
2023-02-12T12:51:13.128Z,30.70
2023-02-12T12:53:59.780Z,28.55
2023-02-12T12:56:51.145Z,25.77
2023-02-12T12:59:36.360Z,26.58
2023-02-12T13:02:38.466Z,25.67
2023-02-12T13:05:21.608Z,23.10
2023-02-12T13:08:06.961Z,20.20
2023-02-12T13:10:37.851Z,21.00
2023-02-12T13:13:23.188Z,20.65
2023-02-12T13:15:55.815Z,16.75
2023-02-12T13:18:41.138Z,16.80
2023-02-12T13:21:28.886Z,17.88
2023-02-12T13:24:13.270Z,19.77
2023-02-12T13:26:52.829Z,17.92
2023-02-12T13:29:21.315Z,20.33
2023-02-12T13:32:13.635Z,21.13
2023-02-12T13:34:40.997Z,19.23
2023-02-12T13:37:16.278Z,19.52
2023-02-12T13:39:45.860Z,16.80
2023-02-12T13:42:40.917Z,14.82
2023-02-12T13:45:15.068Z,18.23
2023-02-12T13:47:56.580Z,16.42
2023-02-12T13:50:38.354Z,15.10
2023-02-12T13:53:31.389Z,13.93
2023-02-12T13:56:28.692Z,12.32
2023-02-12T13:58:56.285Z,10.90
2023-02-12T14:01:47.453Z,12.07
2023-02-12T14:04:22.157Z,12.45
2023-02-12T14:07:12.710Z,11.70
2023-02-12T14:09:42.224Z,12.05
2023-02-12T14:12:11.499Z,10.98
2023-02-12T14:14:41.670Z,10.40
2023-02-12T14:17:30.762Z,12.73
2023-02-12T14:20:12.228Z,11.68
2023-02-12T14:22:41.830Z,11.70
2023-02-12T14:25:13.941Z,11.40
2023-02-12T14:27:46.070Z,10.52
2023-02-12T14:30:12.441Z,11.75
2023-02-12T14:32:44.821Z,11.35
2023-02-12T14:35:26.442Z,10.32
2023-02-12T14:37:59.794Z,12.45
2023-02-12T14:40:36.404Z,11.35
2023-02-12T14:43:19.313Z,10.93
2023-02-12T14:45:45.763Z,12.55
2023-02-12T14:48:41.314Z,11.13
2023-02-12T14:51:16.497Z,11.43
2023-02-12T14:53:44.236Z,12.48
2023-02-12T14:56:12.271Z,12.35
2023-02-12T14:58:38.943Z,12.73
2023-02-12T15:01:05.977Z,11.57
2023-02-12T15:03:40.676Z,10.23
2023-02-12T15:06:15.311Z,10.52
2023-02-12T15:08:45.945Z,9.55
2023-02-12T15:11:29.268Z,11.50
2023-02-12T15:14:02.106Z,9.50
2023-02-12T15:16:38.294Z,10.20
2023-02-12T15:19:14.470Z,10.32
2023-02-12T15:21:41.382Z,8.52
2023-02-12T15:24:08.100Z,11.27
2023-02-12T15:26:41.580Z,11.13
2023-02-12T15:29:17.169Z,10.63
2023-02-12T15:31:43.686Z,8.95
2023-02-12T15:34:19.754Z,10.57
2023-02-12T15:36:46.316Z,8.93
2023-02-12T15:39:21.538Z,8.90
2023-02-12T15:41:48.884Z,8.50
2023-02-12T15:44:28.629Z,9.15
2023-02-12T15:47:01.290Z,9.07
2023-02-12T15:49:30.076Z,9.38
2023-02-12T15:51:56.882Z,9.40
2023-02-12T15:54:23.636Z,8.18
2023-02-12T15:56:50.061Z,9.63
2023-02-12T15:59:25.052Z,10.57
2023-02-12T16:02:03.388Z,9.85
2023-02-12T16:04:32.700Z,9.77
2023-02-12T16:07:00.394Z,8.68
2023-02-12T16:09:34.414Z,9.18
2023-02-12T16:12:04.520Z,9.82
2023-02-12T16:14:49.007Z,12.40
2023-02-12T16:17:32.087Z,12.10
2023-02-12T16:20:19.725Z,10.43
2023-02-12T16:22:49.037Z,10.75
2023-02-12T16:25:15.346Z,10.73
2023-02-12T16:27:50.986Z,8.98
2023-02-12T16:30:28.039Z,8.45
2023-02-12T16:32:54.710Z,9.18
2023-02-12T16:35:24.264Z,10.55
2023-02-12T16:37:58.864Z,10.10
2023-02-12T16:40:31.365Z,9.88
2023-02-12T16:45:28.244Z,9.40
2023-02-12T16:47:57.208Z,12.25
2023-02-12T16:50:26.188Z,11.15
2023-02-12T16:53:02.862Z,14.27
2023-02-12T16:55:29.468Z,13.85
2023-02-12T16:57:55.941Z,12.68
2023-02-12T17:00:23.811Z,12.70
2023-02-12T17:02:50.483Z,12.15
2023-02-12T17:05:18.413Z,12.23
2023-02-12T17:07:45.084Z,13.07
2023-02-12T17:10:15.714Z,17.85
2023-02-12T17:12:50.765Z,15.68
2023-02-12T17:15:29.831Z,13.07
2023-02-12T17:17:56.413Z,12.38
2023-02-12T17:20:22.804Z,14.15
2023-02-12T17:22:51.518Z,14.30
2023-02-12T17:25:18.408Z,12.55
2023-02-12T17:27:45.186Z,12.07
2023-02-12T17:30:16.144Z,11.88
2023-02-12T17:32:42.759Z,11.65
2023-02-12T17:35:09.672Z,10.48
2023-02-12T17:37:36.128Z,11.88
2023-02-12T17:40:02.844Z,10.50
2023-02-12T17:42:29.720Z,12.60
2023-02-12T17:44:56.337Z,12.05
2023-02-12T17:47:22.894Z,13.15
2023-02-12T17:49:49.269Z,12.98
2023-02-12T17:52:15.835Z,13.07
2023-02-12T17:54:44.857Z,13.13
2023-02-12T17:57:13.068Z,13.77
2023-02-12T17:59:40.878Z,13.73
2023-02-12T18:02:08.498Z,13.68
2023-02-12T18:04:35.809Z,15.65
2023-02-12T18:07:03.195Z,15.35
2023-02-12T18:09:30.063Z,14.02
2023-02-12T18:11:56.528Z,13.45
2023-02-12T18:14:23.006Z,13.90
2023-02-12T18:16:49.613Z,14.82
2023-02-12T18:19:16.463Z,12.85
2023-02-12T18:21:42.988Z,13.30
2023-02-12T18:24:09.449Z,14.38
2023-02-12T18:26:35.955Z,16.20
2023-02-12T18:29:03.530Z,16.10
2023-02-12T18:31:30.380Z,17.27
2023-02-12T18:33:56.949Z,22.23
2023-02-12T18:36:23.877Z,17.98
2023-02-12T18:38:51.777Z,17.63
2023-02-12T18:41:26.639Z,16.17
2023-02-12T18:43:53.372Z,19.60
2023-02-12T18:46:25.602Z,18.55
2023-02-12T18:48:52.404Z,20.05
2023-02-12T18:51:22.455Z,17.23
2023-02-12T18:53:54.828Z,20.35
2023-02-12T18:56:21.222Z,18.30
2023-02-12T18:58:47.623Z,19.65
2023-02-12T19:01:16.065Z,18.90
2023-02-12T19:03:42.890Z,18.80
2023-02-12T19:06:09.592Z,17.13
2023-02-12T19:08:36.051Z,16.05
2023-02-12T19:11:02.486Z,16.10
2023-02-12T19:13:28.843Z,18.42
2023-02-12T19:15:55.445Z,16.92
2023-02-12T19:18:21.884Z,18.23
2023-02-12T19:20:48.327Z,23.00
2023-02-12T19:23:14.794Z,20.13
2023-02-12T19:25:45.125Z,20.13
2023-02-12T19:28:12.526Z,20.75
2023-02-12T19:30:40.576Z,22.15
2023-02-12T19:33:07.293Z,22.80
2023-02-12T19:35:34.123Z,19.33
2023-02-12T19:38:01.132Z,23.25
2023-02-12T19:40:27.563Z,22.25
2023-02-12T19:42:54.235Z,21.02
2023-02-12T19:45:20.651Z,21.70
2023-02-12T19:47:47.720Z,19.20
2023-02-12T19:50:14.110Z,19.50
2023-02-12T19:52:41.312Z,20.48
2023-02-12T19:55:07.853Z,20.45
2023-02-12T19:57:36.578Z,23.90
2023-02-12T20:00:03.115Z,21.55
2023-02-12T20:02:29.600Z,21.35
2023-02-12T20:04:56.004Z,23.85
2023-02-12T20:07:22.375Z,19.52
2023-02-12T20:09:51.425Z,24.08
2023-02-12T20:12:18.311Z,21.50
2023-02-12T20:14:44.782Z,24.83
2023-02-12T20:17:11.176Z,21.02
2023-02-12T20:19:37.536Z,22.45
2023-02-12T20:22:04.549Z,23.42
2023-02-12T20:24:33.311Z,20.73
2023-02-12T20:27:00.987Z,22.40
2023-02-12T20:29:27.901Z,22.00
2023-02-12T20:31:54.503Z,23.33
2023-02-12T20:34:21.942Z,22.30
2023-02-12T20:36:48.740Z,21.75
2023-02-12T20:39:19.811Z,22.48
2023-02-12T20:41:46.246Z,19.63
2023-02-12T20:44:16.889Z,19.52
2023-02-12T20:46:47.437Z,23.73
2023-02-12T20:49:15.416Z,20.35
2023-02-12T20:51:42.245Z,20.05
2023-02-12T20:54:08.670Z,19.42
2023-02-12T20:56:36.060Z,19.25
2023-02-12T20:59:03.663Z,20.33
2023-02-12T21:01:34.554Z,21.17
2023-02-12T21:04:03.705Z,19.88
2023-02-12T21:06:30.241Z,20.08
2023-02-12T21:08:56.715Z,19.70
2023-02-12T21:11:24.642Z,18.75
2023-02-12T21:13:59.374Z,17.83
2023-02-12T21:16:31.731Z,16.50
2023-02-12T21:18:58.191Z,18.80
2023-02-12T21:21:29.689Z,21.15
2023-02-12T21:23:57.543Z,18.50
2023-02-12T21:26:26.060Z,19.30
2023-02-12T21:28:53.408Z,18.80
2023-02-12T21:31:44.865Z,20.33
2023-02-12T21:34:15.296Z,20.83
2023-02-12T21:36:45.097Z,23.35
2023-02-12T21:39:24.225Z,21.88
2023-02-12T21:41:52.622Z,21.38
2023-02-12T21:44:19.779Z,22.98
2023-02-12T21:46:48.700Z,25.45
2023-02-12T21:49:23.186Z,21.60
2023-02-12T21:51:49.632Z,23.67
2023-02-12T21:54:16.025Z,24.77
2023-02-12T21:56:43.649Z,23.77
2023-02-12T21:59:10.450Z,21.90
2023-02-12T22:01:41.122Z,20.38
2023-02-12T22:04:10.177Z,23.05
2023-02-12T22:06:39.481Z,25.42
2023-02-12T22:09:07.875Z,23.00
2023-02-12T22:11:35.836Z,23.80
2023-02-12T22:14:04.255Z,23.30
2023-02-12T22:16:31.349Z,25.00
2023-02-12T22:18:59.543Z,24.15
2023-02-12T22:21:31.033Z,26.27
2023-02-12T22:24:00.871Z,23.70
2023-02-12T22:26:28.490Z,25.33
2023-02-12T22:29:00.150Z,28.73
2023-02-12T22:31:29.360Z,30.20
2023-02-12T22:33:58.198Z,26.10
2023-02-12T22:36:25.322Z,25.27
2023-02-12T22:38:53.297Z,25.35
2023-02-12T22:41:19.990Z,30.38
2023-02-12T22:43:46.570Z,24.95
2023-02-12T22:46:13.769Z,29.23
2023-02-12T22:48:40.808Z,28.63
2023-02-12T22:51:14.108Z,28.73
2023-02-12T22:53:40.645Z,24.50
2023-02-12T22:56:08.069Z,25.88
2023-02-12T22:58:34.950Z,23.95
2023-02-12T23:01:06.231Z,28.08
2023-02-12T23:03:33.743Z,25.92
2023-02-12T23:06:05.208Z,27.48
2023-02-12T23:08:31.915Z,26.75
2023-02-12T23:10:58.856Z,22.05
2023-02-12T23:13:30.009Z,25.67
2023-02-12T23:15:57.549Z,29.75
2023-02-12T23:18:24.258Z,25.40
2023-02-12T23:20:51.277Z,24.02
2023-02-12T23:23:17.832Z,26.55
2023-02-12T23:25:44.286Z,25.80
2023-02-12T23:28:10.830Z,24.63
2023-02-12T23:30:37.284Z,23.27
2023-02-12T23:33:03.849Z,22.83
2023-02-12T23:35:30.262Z,22.35
2023-02-12T23:37:56.655Z,21.63
2023-02-12T23:40:23.128Z,21.17
2023-02-12T23:42:49.553Z,21.15
2023-02-12T23:45:15.990Z,22.65
2023-02-12T23:47:42.430Z,23.38
2023-02-12T23:50:09.067Z,22.00
2023-02-12T23:52:35.550Z,21.23
2023-02-12T23:55:02.013Z,21.35
2023-02-12T23:57:28.662Z,22.58
2023-02-12T23:59:55.056Z,22.92
